Time;durP1;ratioP1;P1;durP2;ratioP2;P2;SDS_P1;SDS_P2;PMS_P1;PMS_P2;Temp;Humidity;BMP_temperature;BMP_pressure;BME280_temperature;BME280_humidity;BME280_pressure;Samples;Min_cycle;Max_cycle;Signal;HPM_P1;HPM_P2
2023/06/25 00:00:24;;;;;;;12.57;6.50;;;20.00;99.90;;;;;;5056052;28;20446;-66
2023/06/25 00:02:50;;;;;;;12.23;8.18;;;20.10;99.90;;;;;;5073708;28;20043;-66
2023/06/25 00:05:15;;;;;;;9.95;7.20;;;20.10;99.90;;;;;;5074002;28;20047;-67
2023/06/25 00:07:41;;;;;;;10.68;7.82;;;20.10;99.90;;;;;;5074152;28;20037;-66
2023/06/25 00:10:07;;;;;;;11.88;7.53;;;20.00;99.90;;;;;;5074044;28;20115;-66
2023/06/25 00:12:33;;;;;;;12.05;7.25;;;19.90;99.90;;;;;;5074290;28;20036;-67
2023/06/25 00:14:58;;;;;;;10.23;7.03;;;20.00;99.90;;;;;;5073998;28;20500;-66
2023/06/25 00:17:27;;;;;;;9.40;6.90;;;20.00;99.90;;;;;;5073683;28;20443;-67
2023/06/25 00:19:53;;;;;;;10.55;7.97;;;20.00;99.90;;;;;;5073490;28;20082;-67
2023/06/25 00:22:19;;;;;;;10.73;7.30;;;20.00;99.90;;;;;;5074230;28;20044;-66
2023/06/25 00:24:44;;;;;;;8.82;6.80;;;20.00;99.90;;;;;;5074048;28;20047;-67
2023/06/25 00:27:10;;;;;;;9.50;7.10;;;20.00;99.90;;;;;;5073734;28;20071;-67
2023/06/25 00:29:35;;;;;;;10.23;6.53;;;20.00;99.90;;;;;;5072589;28;20037;-66
2023/06/25 00:32:02;;;;;;;12.38;7.28;;;19.90;99.90;;;;;;5073813;28;20037;-67
2023/06/25 00:34:27;;;;;;;9.02;6.55;;;20.00;99.90;;;;;;5073589;28;20451;-67
2023/06/25 00:36:53;;;;;;;7.85;6.38;;;19.80;99.90;;;;;;5073570;28;20044;-67
2023/06/25 00:39:19;;;;;;;8.85;6.63;;;19.80;99.90;;;;;;5073869;28;20037;-66
2023/06/25 00:41:45;;;;;;;8.88;6.10;;;19.80;99.90;;;;;;5073419;28;20037;-66
2023/06/25 00:44:11;;;;;;;8.43;6.07;;;19.70;99.90;;;;;;5073664;28;20496;-67
2023/06/25 00:46:37;;;;;;;9.43;6.35;;;19.70;99.90;;;;;;5073210;28;20555;-66
2023/06/25 00:49:06;;;;;;;8.75;6.53;;;19.60;99.90;;;;;;5073336;28;20091;-67
2023/06/25 00:51:35;;;;;;;7.95;6.40;;;19.50;99.90;;;;;;5073245;28;20044;-67
2023/06/25 00:54:05;;;;;;;7.70;6.47;;;19.50;99.90;;;;;;5073609;28;20040;-67
2023/06/25 00:56:34;;;;;;;12.40;7.47;;;19.50;99.90;;;;;;5073231;28;20072;-66
2023/06/25 00:59:01;;;;;;;9.05;6.80;;;19.40;99.90;;;;;;5072979;28;20036;-67
2023/06/25 01:01:40;;;;;;;8.48;6.35;;;19.40;99.90;;;;;;5072545;28;20112;-66
2023/06/25 01:04:19;;;;;;;13.43;7.03;;;19.40;99.90;;;;;;5073263;28;20492;-67
2023/06/25 01:06:48;;;;;;;11.05;6.90;;;19.30;99.90;;;;;;5072924;28;20037;-67
2023/06/25 01:09:16;;;;;;;9.52;6.90;;;19.30;99.90;;;;;;5073127;28;20047;-66
2023/06/25 01:11:49;;;;;;;8.88;7.10;;;19.30;99.90;;;;;;5072664;28;20047;-66
2023/06/25 01:14:15;;;;;;;9.50;7.22;;;19.20;99.90;;;;;;5055186;28;20052;-66
2023/06/25 01:16:40;;;;;;;8.18;6.65;;;19.10;99.90;;;;;;5072423;28;20044;-67
2023/06/25 01:19:06;;;;;;;10.40;7.32;;;19.10;99.90;;;;;;5073037;28;20033;-67
2023/06/25 01:21:33;;;;;;;9.30;6.88;;;19.10;99.90;;;;;;5072638;28;20633;-67
2023/06/25 01:23:59;;;;;;;9.90;7.32;;;19.20;99.90;;;;;;5071875;28;20036;-67
2023/06/25 01:26:24;;;;;;;11.45;7.40;;;19.10;99.90;;;;;;5072087;28;20048;-67
2023/06/25 01:28:55;;;;;;;9.63;7.40;;;19.00;99.90;;;;;;5072624;28;20139;-67
2023/06/25 01:31:21;;;;;;;11.63;7.75;;;19.10;99.90;;;;;;5072593;28;20166;-67
2023/06/25 01:33:46;;;;;;;14.93;8.25;;;19.10;99.90;;;;;;5072738;28;20047;-67
2023/06/25 01:36:12;;;;;;;10.43;7.70;;;19.00;99.90;;;;;;5072411;28;20102;-67
2023/06/25 01:38:37;;;;;;;10.35;7.60;;;19.00;99.90;;;;;;5072180;28;20040;-67
2023/06/25 01:41:03;;;;;;;11.45;7.53;;;19.00;99.90;;;;;;5071948;28;20033;-67
2023/06/25 01:43:30;;;;;;;10.27;8.35;;;19.00;99.90;;;;;;5072406;28;20036;-67
2023/06/25 01:45:56;;;;;;;10.68;7.43;;;19.00;99.90;;;;;;5072555;28;20166;-67
2023/06/25 01:48:21;;;;;;;10.02;7.05;;;19.00;99.90;;;;;;5072187;28;20032;-67
2023/06/25 01:50:47;;;;;;;8.50;6.88;;;18.90;99.90;;;;;;5072032;28;20040;-67
2023/06/25 01:53:13;;;;;;;12.57;7.88;;;18.90;99.90;;;;;;5072290;28;20551;-67
2023/06/25 01:55:39;;;;;;;13.23;7.50;;;18.90;99.90;;;;;;5071921;28;20047;-67
2023/06/25 01:58:05;;;;;;;12.07;8.55;;;18.80;99.90;;;;;;5072012;28;20072;-67
2023/06/25 02:00:30;;;;;;;11.52;8.93;;;18.90;99.90;;;;;;5071669;28;20110;-67
2023/06/25 02:02:56;;;;;;;15.52;9.35;;;18.80;99.90;;;;;;5072174;28;20044;-67
2023/06/25 02:05:21;;;;;;;14.30;9.43;;;18.80;99.90;;;;;;5071572;28;20041;-67
2023/06/25 02:07:47;;;;;;;15.02;9.77;;;18.80;99.90;;;;;;5071646;28;20039;-67
2023/06/25 02:10:15;;;;;;;12.63;9.02;;;18.90;99.90;;;;;;5071502;28;20411;-67
2023/06/25 02:12:41;;;;;;;13.38;9.27;;;18.90;99.90;;;;;;5072101;28;20478;-67
2023/06/25 02:15:07;;;;;;;12.98;9.27;;;18.80;99.90;;;;;;5072041;28;20116;-67
2023/06/25 02:17:32;;;;;;;13.55;9.02;;;18.90;99.90;;;;;;5071428;28;20037;-67
2023/06/25 02:19:58;;;;;;;13.85;9.32;;;18.80;99.90;;;;;;5071383;28;20041;-67
2023/06/25 02:22:24;;;;;;;14.98;9.65;;;18.80;99.90;;;;;;5071789;28;20443;-67
2023/06/25 02:24:49;;;;;;;14.32;10.10;;;18.80;99.90;;;;;;5071373;28;20039;-67
2023/06/25 02:27:15;;;;;;;16.65;10.68;;;18.80;99.90;;;;;;5071576;28;20071;-67
2023/06/25 02:29:40;;;;;;;15.95;9.18;;;18.90;99.90;;;;;;5071433;28;20036;-67
2023/06/25 02:32:06;;;;;;;16.33;10.57;;;18.80;99.90;;;;;;5071408;28;20516;-67
2023/06/25 02:34:32;;;;;;;18.48;11.52;;;18.80;99.90;;;;;;5053766;28;20075;-67
2023/06/25 02:36:57;;;;;;;16.50;10.50;;;18.80;99.90;;;;;;5071046;28;20446;-67
2023/06/25 02:39:23;;;;;;;16.13;10.70;;;18.80;99.90;;;;;;5071126;28;20052;-67
2023/06/25 02:41:48;;;;;;;17.58;10.15;;;18.70;99.90;;;;;;5053709;28;20032;-67
2023/06/25 02:44:14;;;;;;;16.10;9.55;;;18.70;99.90;;;;;;5071799;28;20032;-67
2023/06/25 02:46:39;;;;;;;14.73;9.70;;;18.70;99.90;;;;;;5071341;28;20040;-67
2023/06/25 02:49:05;;;;;;;14.00;10.25;;;18.70;99.90;;;;;;5071494;28;20411;-67
2023/06/25 02:51:30;;;;;;;15.45;9.88;;;18.70;99.90;;;;;;5070622;28;20212;-67
2023/06/25 02:53:56;;;;;;;13.30;9.75;;;18.70;99.90;;;;;;5053318;28;20048;-67
2023/06/25 02:56:22;;;;;;;16.63;10.27;;;18.60;99.90;;;;;;5071445;28;20530;-67
2023/06/25 02:58:47;;;;;;;12.95;9.80;;;18.70;99.90;;;;;;5071245;28;20028;-67
2023/06/25 03:01:13;;;;;;;17.10;10.10;;;18.50;99.90;;;;;;5071077;28;20036;-67
2023/06/25 03:03:38;;;;;;;16.88;9.95;;;18.60;99.90;;;;;;5071355;28;20516;-67
2023/06/25 03:06:05;;;;;;;15.63;10.32;;;18.60;99.90;;;;;;5071359;28;20471;-68
2023/06/25 03:08:30;;;;;;;13.73;10.20;;;18.50;99.90;;;;;;5071035;28;20507;-67
2023/06/25 03:10:56;;;;;;;14.95;10.32;;;18.50;99.90;;;;;;5071084;28;20044;-67
2023/06/25 03:13:21;;;;;;;14.93;10.75;;;18.40;99.90;;;;;;5071439;28;20522;-68
2023/06/25 03:15:47;;;;;;;16.42;10.65;;;18.50;99.90;;;;;;5070758;28;20568;-67
2023/06/25 03:18:12;;;;;;;17.05;10.25;;;18.50;99.90;;;;;;5070935;28;20043;-67
2023/06/25 03:20:38;;;;;;;15.95;10.25;;;18.40;99.90;;;;;;5070756;28;20037;-67
2023/06/25 03:23:04;;;;;;;16.02;11.65;;;18.30;99.90;;;;;;5053458;28;20049;-67
2023/06/25 03:25:29;;;;;;;19.13;13.02;;;18.40;99.90;;;;;;5070857;28;20518;-67
2023/06/25 03:27:55;;;;;;;15.88;10.70;;;18.30;99.90;;;;;;5070935;28;20472;-67
2023/06/25 03:30:20;;;;;;;15.68;10.65;;;18.50;99.90;;;;;;5070746;28;20037;-67
2023/06/25 03:32:46;;;;;;;15.90;10.73;;;18.40;99.90;;;;;;5071119;28;20068;-67
2023/06/25 03:35:12;;;;;;;16.77;11.27;;;18.40;99.90;;;;;;5070936;28;20504;-67
2023/06/25 03:37:37;;;;;;;17.33;11.15;;;18.30;99.90;;;;;;5070778;28;20033;-67
2023/06/25 03:40:03;;;;;;;15.35;11.00;;;18.30;99.90;;;;;;5070480;28;20492;-67
2023/06/25 03:42:29;;;;;;;18.90;10.50;;;18.40;99.90;;;;;;5071213;28;20033;-67
2023/06/25 03:44:55;;;;;;;16.88;11.43;;;18.40;99.90;;;;;;5071056;28;20037;-67
2023/06/25 03:47:20;;;;;;;15.95;11.57;;;18.40;99.90;;;;;;5070690;28;20040;-67
2023/06/25 03:49:46;;;;;;;18.73;10.80;;;18.30;99.90;;;;;;5070620;28;20519;-68
2023/06/25 03:52:12;;;;;;;18.25;11.40;;;18.50;99.90;;;;;;5071059;28;20487;-67
2023/06/25 03:54:37;;;;;;;17.45;11.50;;;18.50;99.90;;;;;;5071118;28;20040;-67
2023/06/25 03:57:03;;;;;;;14.75;11.45;;;18.40;99.90;;;;;;5070760;28;20037;-67
2023/06/25 03:59:29;;;;;;;18.13;11.55;;;18.50;99.90;;;;;;5070355;28;20049;-67
2023/06/25 04:01:55;;;;;;;16.65;10.93;;;18.40;99.90;;;;;;5072471;28;20373;-67
2023/06/25 04:04:20;;;;;;;15.45;11.07;;;18.40;99.90;;;;;;5073488;28;20040;-67
2023/06/25 04:06:46;;;;;;;17.63;11.50;;;18.40;99.90;;;;;;5074094;28;20119;-67
2023/06/25 04:09:12;;;;;;;17.55;11.20;;;18.50;99.90;;;;;;5074537;28;20384;-67
2023/06/25 04:11:37;;;;;;;16.63;10.57;;;18.50;99.90;;;;;;5074075;28;20071;-67
2023/06/25 04:14:03;;;;;;;16.88;11.32;;;18.50;99.90;;;;;;5074363;28;20412;-67
2023/06/25 04:16:29;;;;;;;17.52;11.68;;;18.60;99.90;;;;;;5073835;28;20072;-67
2023/06/25 04:18:54;;;;;;;23.75;12.02;;;18.60;99.90;;;;;;5073872;28;20040;-67
2023/06/25 04:21:20;;;;;;;17.25;11.25;;;18.50;99.90;;;;;;5073736;28;20408;-67
2023/06/25 04:23:46;;;;;;;17.67;11.00;;;18.60;99.90;;;;;;5073669;28;20167;-67
2023/06/25 04:26:12;;;;;;;19.80;11.32;;;18.70;99.90;;;;;;5073629;28;20407;-67
2023/06/25 04:28:37;;;;;;;17.77;12.18;;;18.50;99.90;;;;;;5073582;28;20036;-67
2023/06/25 04:31:03;;;;;;;15.95;11.00;;;18.60;99.90;;;;;;5073619;28;20116;-67
2023/06/25 04:33:28;;;;;;;15.05;10.73;;;18.60;99.90;;;;;;5073952;28;20040;-68
2023/06/25 04:35:54;;;;;;;16.52;10.98;;;18.70;99.90;;;;;;5073580;28;20044;-67
2023/06/25 04:38:20;;;;;;;23.05;12.15;;;18.80;99.90;;;;;;5073204;28;20411;-68
2023/06/25 04:40:45;;;;;;;18.52;12.05;;;18.90;99.90;;;;;;5073249;28;20049;-67
2023/06/25 04:43:11;;;;;;;17.55;11.77;;;18.90;99.90;;;;;;5073923;28;20068;-67
2023/06/25 04:45:36;;;;;;;15.93;10.75;;;19.00;99.90;;;;;;5073708;28;20082;-67
2023/06/25 04:48:02;;;;;;;19.27;11.23;;;19.10;99.90;;;;;;5073707;28;20043;-67
2023/06/25 04:50:27;;;;;;;17.15;11.07;;;19.20;99.90;;;;;;5055832;28;20047;-67
2023/06/25 04:52:54;;;;;;;18.80;10.90;;;19.40;99.90;;;;;;5073249;28;20089;-67
2023/06/25 04:55:20;;;;;;;15.07;11.02;;;19.50;99.90;;;;;;5073659;28;20420;-68
2023/06/25 04:57:45;;;;;;;14.63;10.30;;;19.80;99.90;;;;;;5073381;28;20036;-67
2023/06/25 05:00:11;;;;;;;16.50;10.18;;;20.00;99.90;;;;;;5073095;28;20040;-67
2023/06/25 05:02:37;;;;;;;16.30;10.32;;;20.20;99.90;;;;;;5073232;28;20560;-67
2023/06/25 05:05:03;;;;;;;13.27;9.80;;;20.30;99.90;;;;;;5070561;28;20037;-67
2023/06/25 05:07:29;;;;;;;17.30;10.65;;;20.50;99.90;;;;;;5072452;28;20032;-67
2023/06/25 05:09:54;;;;;;;13.07;9.48;;;20.70;99.90;;;;;;5072930;28;20040;-68
2023/06/25 05:12:20;;;;;;;14.25;9.68;;;21.00;99.90;;;;;;5072439;28;20039;-67
2023/06/25 05:14:45;;;;;;;13.23;9.80;;;21.20;99.90;;;;;;5072327;28;20106;-67
2023/06/25 05:17:11;;;;;;;14.38;10.05;;;21.40;99.90;;;;;;5072552;28;20037;-67
2023/06/25 05:19:36;;;;;;;20.27;11.05;;;21.50;99.90;;;;;;5072540;28;20051;-67
2023/06/25 05:22:02;;;;;;;14.77;9.48;;;21.80;99.90;;;;;;5072742;28;20039;-67
2023/06/25 05:24:28;;;;;;;14.60;10.30;;;21.80;99.90;;;;;;5073209;28;20044;-67
2023/06/25 05:26:54;;;;;;;14.15;10.15;;;21.90;99.90;;;;;;5072905;28;20404;-67
2023/06/25 05:29:19;;;;;;;12.80;9.25;;;22.00;99.90;;;;;;5073097;28;20044;-67
2023/06/25 05:31:46;;;;;;;13.90;8.98;;;22.20;99.90;;;;;;5072673;28;20044;-67
2023/06/25 05:34:11;;;;;;;14.02;9.75;;;22.30;99.90;;;;;;5072801;28;20036;-67
2023/06/25 05:36:37;;;;;;;14.73;9.02;;;22.50;99.90;;;;;;5071993;28;20063;-67
2023/06/25 05:39:02;;;;;;;12.63;8.90;;;22.60;99.90;;;;;;5072799;28;20044;-67
2023/06/25 05:41:28;;;;;;;11.30;7.68;;;22.80;99.90;;;;;;5072374;28;20028;-67
2023/06/25 05:43:54;;;;;;;11.60;8.38;;;22.90;99.90;;;;;;5072657;28;20097;-67
2023/06/25 05:46:19;;;;;;;14.23;8.43;;;23.10;99.90;;;;;;5072323;28;20044;-67
2023/06/25 05:48:45;;;;;;;12.88;9.02;;;23.20;99.90;;;;;;5072135;28;20064;-67
2023/06/25 05:51:11;;;;;;;11.13;8.18;;;23.30;99.90;;;;;;5071757;28;20588;-67
2023/06/25 05:53:41;;;;;;;11.88;7.95;;;23.50;99.90;;;;;;5072534;28;20079;-68
2023/06/25 05:56:07;;;;;;;12.15;7.50;;;23.60;99.90;;;;;;5072097;28;20037;-67
2023/06/25 05:58:36;;;;;;;9.55;7.55;;;23.70;99.90;;;;;;5072019;28;20097;-67
2023/06/25 06:01:05;;;;;;;9.93;6.97;;;23.80;99.90;;;;;;5071799;28;20036;-67
2023/06/25 06:03:31;;;;;;;11.55;7.15;;;24.00;99.90;;;;;;5071477;28;20033;-67
2023/06/25 06:05:57;;;;;;;12.35;7.57;;;24.30;99.90;;;;;;5071846;28;20044;-67
2023/06/25 06:08:23;;;;;;;10.25;7.35;;;24.30;99.30;;;;;;5071771;28;20044;-67
2023/06/25 06:10:49;;;;;;;9.38;7.15;;;24.40;98.80;;;;;;5071582;28;20041;-68
2023/06/25 06:13:15;;;;;;;9.10;6.85;;;24.40;98.50;;;;;;5071741;28;20092;-67
2023/06/25 06:15:40;;;;;;;9.38;6.55;;;24.70;98.30;;;;;;5071481;28;20105;-67
2023/06/25 06:18:06;;;;;;;12.13;6.72;;;24.90;98.30;;;;;;5071593;28;20408;-67
2023/06/25 06:20:32;;;;;;;11.80;6.97;;;25.10;97.80;;;;;;5071333;28;20124;-67
2023/06/25 06:23:01;;;;;;;12.30;6.75;;;25.30;97.70;;;;;;5071765;28;20071;-67
2023/06/25 06:25:27;;;;;;;10.95;6.70;;;25.40;97.20;;;;;;5071536;28;20040;-67
2023/06/25 06:27:54;;;;;;;11.60;7.72;;;25.40;96.70;;;;;;5070565;28;20036;-67
2023/06/25 06:30:20;;;;;;;11.40;7.10;;;25.40;96.00;;;;;;5071260;28;20052;-67
2023/06/25 06:32:46;;;;;;;10.23;7.32;;;25.50;96.00;;;;;;5071456;28;20044;-67
2023/06/25 06:35:12;;;;;;;9.75;7.00;;;25.30;95.60;;;;;;5071611;28;20063;-68
2023/06/25 06:37:37;;;;;;;14.38;8.60;;;25.60;95.40;;;;;;5071020;28;20500;-67
2023/06/25 06:40:03;;;;;;;11.90;7.93;;;25.60;95.10;;;;;;5071261;28;20044;-67
2023/06/25 06:42:29;;;;;;;12.68;8.63;;;25.80;95.10;;;;;;5071751;28;20461;-68
2023/06/25 06:44:54;;;;;;;14.95;9.75;;;25.80;94.80;;;;;;5071590;28;20393;-67
2023/06/25 06:47:20;;;;;;;12.13;8.27;;;25.90;94.70;;;;;;5070997;28;20052;-67
2023/06/25 06:49:46;;;;;;;14.05;8.45;;;25.90;94.50;;;;;;5071332;28;20036;-67
2023/06/25 06:52:13;;;;;;;12.90;8.20;;;26.10;94.30;;;;;;5070391;28;20041;-67
2023/06/25 06:54:38;;;;;;;14.43;9.70;;;26.30;94.30;;;;;;5071238;28;20531;-68
2023/06/25 06:57:05;;;;;;;13.90;9.45;;;26.30;94.30;;;;;;5070957;28;20040;-67
2023/06/25 06:59:30;;;;;;;13.27;8.95;;;26.40;94.20;;;;;;5069867;28;20049;-68
2023/06/25 07:01:56;;;;;;;14.98;10.60;;;26.70;94.40;;;;;;5071272;28;20037;-67
2023/06/25 07:04:21;;;;;;;15.73;8.90;;;26.70;94.10;;;;;;5071270;28;20040;-67
2023/06/25 07:06:47;;;;;;;18.67;11.00;;;27.10;94.50;;;;;;5070795;28;20120;-67
2023/06/25 07:09:12;;;;;;;12.23;9.40;;;27.10;93.90;;;;;;5070124;28;20045;-67
2023/06/25 07:11:38;;;;;;;12.43;9.35;;;27.20;93.90;;;;;;5070877;28;20411;-68
2023/06/25 07:14:04;;;;;;;13.30;9.93;;;27.30;93.30;;;;;;5071167;28;20041;-68
2023/06/25 07:16:29;;;;;;;14.38;8.77;;;27.50;92.50;;;;;;5070940;28;20051;-67
2023/06/25 07:18:55;;;;;;;13.40;9.25;;;27.50;92.00;;;;;;5071027;28;20040;-68
2023/06/25 07:21:20;;;;;;;11.98;10.07;;;27.80;91.60;;;;;;5070945;28;20036;-68
2023/06/25 07:23:46;;;;;;;10.82;8.52;;;27.80;91.40;;;;;;5069758;28;20112;-68
2023/06/25 07:26:12;;;;;;;13.70;9.85;;;28.00;91.30;;;;;;5061920;28;20062;-67
2023/06/25 07:28:37;;;;;;;17.25;9.63;;;27.90;90.70;;;;;;5060241;28;20044;-68
2023/06/25 07:31:03;;;;;;;14.60;10.30;;;28.00;90.70;;;;;;5061096;28;20029;-68
2023/06/25 07:33:28;;;;;;;11.07;8.77;;;28.00;90.30;;;;;;5065397;28;20036;-68
2023/06/25 07:35:54;;;;;;;14.45;11.60;;;28.20;90.10;;;;;;5071174;28;20044;-68
2023/06/25 07:38:19;;;;;;;13.20;10.45;;;28.40;87.80;;;;;;5070700;28;20527;-68
2023/06/25 07:40:45;;;;;;;16.20;10.30;;;28.40;86.80;;;;;;5064403;28;20033;-68
2023/06/25 07:43:11;;;;;;;13.02;11.25;;;28.60;86.30;;;;;;5063106;28;20051;-68
2023/06/25 07:45:38;;;;;;;14.73;11.90;;;28.60;84.50;;;;;;5047912;28;20047;-68
2023/06/25 07:48:04;;;;;;;13.07;10.85;;;28.80;84.80;;;;;;5074744;28;20111;-68
2023/06/25 07:50:29;;;;;;;13.68;11.25;;;29.00;83.40;;;;;;5074470;28;20079;-68
2023/06/25 07:52:55;;;;;;;15.18;12.63;;;29.10;82.60;;;;;;5074530;28;20123;-68
2023/06/25 07:55:22;;;;;;;12.98;11.18;;;29.10;82.60;;;;;;5065324;28;20045;-68
2023/06/25 07:57:47;;;;;;;17.17;12.63;;;29.20;82.10;;;;;;5061743;28;20048;-67
2023/06/25 08:00:13;;;;;;;13.65;11.88;;;29.20;81.10;;;;;;5072099;28;20131;-68
2023/06/25 08:02:39;;;;;;;12.65;11.25;;;29.40;80.70;;;;;;5075727;28;20044;-68
2023/06/25 08:05:05;;;;;;;16.30;13.88;;;29.50;80.80;;;;;;5074598;28;20035;-68
2023/06/25 08:07:30;;;;;;;13.77;12.20;;;29.30;80.50;;;;;;5073665;28;20408;-68
2023/06/25 08:09:56;;;;;;;15.85;12.80;;;29.50;80.70;;;;;;5073613;28;20046;-69
2023/06/25 08:12:21;;;;;;;15.50;13.23;;;29.50;80.00;;;;;;5056291;28;20535;-69
2023/06/25 08:14:47;;;;;;;14.35;12.13;;;29.70;80.00;;;;;;5073813;28;20032;-69
2023/06/25 08:17:12;;;;;;;12.90;11.50;;;29.70;79.10;;;;;;5073468;28;20389;-69
2023/06/25 08:19:38;;;;;;;11.02;8.82;;;29.90;78.90;;;;;;5073176;28;20435;-69
2023/06/25 08:22:04;;;;;;;12.10;10.05;;;30.10;79.60;;;;;;5060457;28;20448;-69
2023/06/25 08:24:29;;;;;;;17.58;12.48;;;30.20;80.80;;;;;;5073856;28;20040;-69
2023/06/25 08:26:55;;;;;;;13.07;11.60;;;30.40;78.50;;;;;;5073052;28;20086;-69
2023/06/25 08:29:21;;;;;;;13.05;11.73;;;30.50;76.00;;;;;;5060106;28;20060;-69
2023/06/25 08:31:47;;;;;;;14.90;13.30;;;30.60;74.60;;;;;;5073222;28;20411;-69
2023/06/25 08:34:12;;;;;;;16.02;11.98;;;30.50;73.60;;;;;;5073587;28;20041;-69
2023/06/25 08:36:38;;;;;;;13.70;11.52;;;30.80;73.70;;;;;;5072622;28;20457;-70
2023/06/25 08:39:03;;;;;;;16.02;12.25;;;30.80;72.90;;;;;;5073423;28;20037;-69
2023/06/25 08:41:29;;;;;;;12.98;11.13;;;30.90;72.20;;;;;;5046819;28;20101;-69
2023/06/25 08:43:55;;;;;;;11.95;10.80;;;30.90;71.60;;;;;;5073816;28;20138;-69
2023/06/25 08:46:24;;;;;;;12.90;11.52;;;30.80;71.00;;;;;;5073126;28;20118;-69
2023/06/25 08:48:54;;;;;;;10.13;8.35;;;30.90;70.50;;;;;;5072919;28;20401;-69
2023/06/25 08:51:23;;;;;;;12.13;9.13;;;31.30;70.70;;;;;;5061522;28;20044;-69
2023/06/25 08:53:49;;;;;;;10.52;9.43;;;31.40;68.80;;;;;;5072759;28;20043;-69
2023/06/25 08:56:18;;;;;;;10.57;8.25;;;31.30;69.40;;;;;;5058845;28;20040;-69
2023/06/25 08:58:44;;;;;;;10.23;8.85;;;31.60;67.30;;;;;;5072466;28;20111;-69
2023/06/25 09:01:13;;;;;;;11.02;8.65;;;31.60;66.90;;;;;;5064393;28;20497;-69
2023/06/25 09:03:42;;;;;;;11.88;9.00;;;31.50;66.40;;;;;;5072913;28;20036;-69
2023/06/25 09:06:26;;;;;;;10.30;8.82;;;31.50;65.70;;;;;;5072768;28;20042;-69
2023/06/25 09:08:52;;;;;;;10.18;7.75;;;31.80;65.40;;;;;;5057686;28;20412;-69
2023/06/25 09:11:17;;;;;;;9.48;7.60;;;32.00;66.60;;;;;;5052349;28;20043;-68
2023/06/25 09:13:44;;;;;;;7.97;7.18;;;32.00;64.00;;;;;;5053060;28;20095;-68
2023/06/25 09:16:10;;;;;;;7.85;7.07;;;31.90;61.70;;;;;;5052851;28;20083;-68
2023/06/25 09:18:36;;;;;;;11.88;9.48;;;32.00;61.50;;;;;;5052601;28;20520;-68
2023/06/25 09:21:07;;;;;;;7.75;6.95;;;31.70;61.20;;;;;;5052603;28;20056;-68
2023/06/25 09:23:35;;;;;;;10.02;8.43;;;31.70;59.70;;;;;;5052854;28;20393;-68
2023/06/25 09:26:06;;;;;;;10.20;7.57;;;31.70;59.70;;;;;;5053039;28;20047;-68
2023/06/25 09:28:32;;;;;;;8.93;7.35;;;31.80;59.50;;;;;;5052135;28;20044;-68
2023/06/25 09:30:59;;;;;;;7.47;6.22;;;31.90;60.40;;;;;;5052399;28;20033;-68
2023/06/25 09:33:35;;;;;;;8.95;6.13;;;32.30;59.50;;;;;;5034895;28;20060;-68
2023/06/25 09:36:03;;;;;;;10.10;8.57;;;32.20;56.80;;;;;;5052432;28;20045;-68
2023/06/25 09:38:29;;;;;;;8.70;7.55;;;32.00;57.00;;;;;;5034743;28;20049;-68
2023/06/25 09:40:58;;;;;;;7.63;4.93;;;31.90;57.50;;;;;;5052218;28;20503;-68
2023/06/25 09:43:25;;;;;;;7.00;5.57;;;32.00;53.50;;;;;;5052365;28;20063;-68
2023/06/25 09:45:52;;;;;;;7.95;7.15;;;31.80;52.80;;;;;;5051618;28;20029;-69
2023/06/25 09:48:22;;;;;;;8.65;7.68;;;31.90;53.90;;;;;;5034381;28;20041;-68
2023/06/25 09:50:49;;;;;;;8.27;5.25;;;31.80;53.70;;;;;;5051939;28;20033;-69
2023/06/25 09:53:20;;;;;;;7.43;6.72;;;31.80;53.40;;;;;;5052487;28;20044;-68
2023/06/25 09:55:46;;;;;;;6.23;4.43;;;31.70;52.40;;;;;;5052485;28;20033;-69
2023/06/25 09:58:12;;;;;;;5.43;4.80;;;31.90;50.70;;;;;;5056904;28;20390;-69
2023/06/25 10:00:39;;;;;;;4.97;4.43;;;32.00;49.10;;;;;;5040921;28;20505;-69
2023/06/25 10:03:05;;;;;;;5.70;4.32;;;32.00;48.50;;;;;;5031203;28;20036;-68
2023/06/25 10:05:32;;;;;;;6.70;4.93;;;32.10;47.80;;;;;;5030550;28;20070;-69
2023/06/25 10:07:58;;;;;;;6.57;3.95;;;32.20;46.30;;;;;;5013353;28;20045;-70
2023/06/25 10:10:28;;;;;;;5.22;4.47;;;32.00;45.50;;;;;;5013300;28;20036;-69
2023/06/25 10:12:54;;;;;;;6.07;4.38;;;32.30;45.60;;;;;;5031246;28;20051;-69
2023/06/25 10:15:29;;;;;;;5.80;3.85;;;32.10;45.40;;;;;;5029086;28;20147;-69
2023/06/25 10:18:01;;;;;;;7.63;4.28;;;32.10;43.70;;;;;;5031183;28;20036;-69
2023/06/25 10:20:28;;;;;;;;;;;31.80;43.30;;;;;;5031252;28;20074;-69
2023/06/25 10:23:10;;;;;;;5.97;4.75;;;31.60;43.70;;;;;;5031711;28;19916;-69
2023/06/25 10:25:36;;;;;;;;;;;31.60;43.80;;;;;;5030399;28;20091;-69
2023/06/25 10:28:08;;;;;;;5.53;4.43;;;31.40;44.80;;;;;;5030702;28;19916;-68
2023/06/25 10:30:37;;;;;;;5.72;4.00;;;31.30;44.60;;;;;;5030410;28;20789;-69
2023/06/25 10:33:03;;;;;;;5.15;4.47;;;31.40;45.40;;;;;;5030849;28;20106;-69
2023/06/25 10:35:37;;;;;;;5.63;4.05;;;31.30;44.70;;;;;;5030350;28;20358;-70
2023/06/25 10:38:03;;;;;;;5.25;4.50;;;31.30;45.40;;;;;;5012088;28;20558;-68
2023/06/25 10:40:33;;;;;;;5.13;4.43;;;31.20;44.40;;;;;;5030581;28;20044;-69
2023/06/25 10:42:59;;;;;;;5.78;3.97;;;31.10;43.40;;;;;;5030422;28;20064;-69
2023/06/25 10:45:25;;;;;;;6.28;3.83;;;31.00;43.00;;;;;;5041148;28;20212;-69
2023/06/25 10:48:01;;;;;;;5.63;3.80;;;31.00;43.40;;;;;;5050222;28;20225;-68
2023/06/25 10:50:30;;;;;;;4.15;3.67;;;30.80;42.70;;;;;;5051097;28;20226;-68
2023/06/25 10:52:56;;;;;;;4.07;3.58;;;30.70;43.30;;;;;;5050344;28;20050;-68
2023/06/25 10:55:23;;;;;;;5.00;4.10;;;30.50;43.10;;;;;;5030375;28;20032;-69
2023/06/25 10:57:49;;;;;;;5.90;3.78;;;30.40;42.80;;;;;;5049838;28;20040;-68
2023/06/25 11:00:15;;;;;;;5.22;3.70;;;30.40;43.60;;;;;;5046416;28;20121;-68
2023/06/25 11:02:40;;;;;;;6.68;4.22;;;30.60;44.00;;;;;;5049345;28;20198;-68
2023/06/25 11:05:06;;;;;;;5.43;4.72;;;30.60;44.30;;;;;;5049632;28;20032;-68
2023/06/25 11:07:32;;;;;;;4.60;3.63;;;30.60;45.10;;;;;;5033167;28;20830;-68
2023/06/25 11:10:01;;;;;;;6.60;4.38;;;30.70;44.80;;;;;;5046961;28;20048;-68
2023/06/25 11:12:28;;;;;;;6.30;4.00;;;30.70;44.20;;;;;;5049781;28;20048;-69
2023/06/25 11:14:54;;;;;;;10.75;4.32;;;30.60;44.00;;;;;;5054627;28;20164;-68
2023/06/25 11:17:20;;;;;;;4.93;4.05;;;30.50;45.00;;;;;;5054680;28;20521;-69
2023/06/25 11:19:57;;;;;;;6.38;4.00;;;30.70;45.20;;;;;;5055956;28;20036;-68
2023/06/25 11:22:22;;;;;;;4.78;3.88;;;30.60;45.20;;;;;;5055179;28;20033;-68
2023/06/25 11:24:49;;;;;;;6.45;4.25;;;30.60;45.40;;;;;;5036710;28;20658;-69
2023/06/25 11:27:27;;;;;;;8.43;4.40;;;30.70;45.40;;;;;;5053374;28;20089;-68
2023/06/25 11:29:54;;;;;;;6.70;4.35;;;30.70;45.60;;;;;;5055020;28;20067;-68
2023/06/25 11:32:24;;;;;;;6.78;4.15;;;30.60;45.50;;;;;;5054754;28;20058;-68
2023/06/25 11:34:50;;;;;;;5.03;3.80;;;30.50;45.30;;;;;;5053829;28;20074;-68
2023/06/25 11:37:18;;;;;;;4.25;3.33;;;30.40;44.90;;;;;;5054645;28;20032;-68
2023/06/25 11:39:45;;;;;;;5.30;4.10;;;30.40;45.60;;;;;;5053790;28;20040;-68
2023/06/25 11:42:22;;;;;;;7.57;4.20;;;30.60;45.70;;;;;;5055209;28;20580;-68
2023/06/25 11:44:59;;;;;;;7.15;3.95;;;30.70;45.50;;;;;;5053207;28;20097;-69
2023/06/25 11:47:25;;;;;;;4.22;3.78;;;30.80;45.10;;;;;;5053458;28;20043;-69
2023/06/25 11:49:52;;;;;;;6.35;4.65;;;30.80;46.00;;;;;;5055353;28;20101;-68
2023/06/25 11:52:18;;;;;;;6.38;3.97;;;30.90;46.60;;;;;;5055253;28;20303;-69
2023/06/25 11:54:44;;;;;;;5.03;3.90;;;31.10;46.60;;;;;;5050151;28;20741;-69
2023/06/25 11:57:09;;;;;;;5.30;4.15;;;31.10;46.70;;;;;;5052448;28;20101;-69
2023/06/25 11:59:36;;;;;;;5.25;4.28;;;31.20;46.00;;;;;;5054346;28;20045;-69
2023/06/25 12:02:02;;;;;;;5.65;3.83;;;31.10;45.40;;;;;;5052721;28;20131;-68
2023/06/25 12:04:27;;;;;;;6.65;4.43;;;30.90;45.20;;;;;;5052134;28;20427;-68
2023/06/25 12:06:53;;;;;;;4.20;3.70;;;31.10;45.50;;;;;;5053973;28;20050;-67
2023/06/25 12:09:18;;;;;;;4.82;3.70;;;31.10;45.50;;;;;;5054184;28;20196;-68
2023/06/25 12:11:45;;;;;;;6.03;4.03;;;31.10;44.70;;;;;;5053987;28;20058;-68
2023/06/25 12:14:11;;;;;;;5.05;3.67;;;31.20;45.50;;;;;;5054759;28;20031;-69
2023/06/25 12:16:37;;;;;;;5.20;3.95;;;31.20;44.20;;;;;;5052867;28;20043;-68
2023/06/25 12:19:04;;;;;;;5.03;4.03;;;30.90;43.80;;;;;;5054597;28;20214;-68
2023/06/25 12:21:29;;;;;;;5.18;3.47;;;30.80;43.10;;;;;;5053530;28;20320;-68
2023/06/25 12:23:55;;;;;;;5.47;3.42;;;30.80;42.90;;;;;;5054131;28;20932;-69
2023/06/25 12:26:20;;;;;;;4.82;3.47;;;30.80;43.10;;;;;;5053511;28;20672;-68
2023/06/25 12:28:48;;;;;;;4.97;3.60;;;31.00;44.00;;;;;;5034693;28;20075;-68
2023/06/25 12:31:14;;;;;;;4.05;3.55;;;31.10;43.30;;;;;;5053387;28;20608;-68
2023/06/25 12:33:40;;;;;;;4.55;3.58;;;31.20;42.50;;;;;;5053612;28;20054;-68